Time;durP1;ratioP1;P1;durP2;ratioP2;P2;SDS_P1;SDS_P2;PMS_P1;PMS_P2;Temp;Humidity;BMP_temperature;BMP_pressure;BME280_temperature;BME280_humidity;BME280_pressure;Samples;Min_cycle;Max_cycle;Signal;HPM_P1;HPM_P2
2023/10/07 00:00:26;;;;;;;9.30;3.22;;;;;;;15.48;100.00;101810.13;5015969;28;20041;-73
2023/10/07 00:02:48;;;;;;;10.02;3.80;;;;;;;15.43;100.00;101818.94;5011935;28;20045;-73
2023/10/07 00:05:16;;;;;;;9.85;3.78;;;;;;;15.46;100.00;101821.00;5015943;28;20174;-73
2023/10/07 00:07:44;;;;;;;15.27;4.07;;;;;;;15.47;100.00;101828.25;5017608;28;20405;-73
2023/10/07 00:10:14;;;;;;;14.55;3.92;;;;;;;15.52;100.00;101827.91;5012108;28;20099;-73
2023/10/07 00:12:40;;;;;;;13.00;4.05;;;;;;;15.51;100.00;101831.91;5015387;28;20042;-73
2023/10/07 00:15:11;;;;;;;13.93;4.18;;;;;;;15.48;100.00;101824.22;5016153;28;20033;-73
2023/10/07 00:17:42;;;;;;;8.38;4.15;;;;;;;15.50;100.00;101821.84;5014317;28;20164;-73
2023/10/07 00:20:11;;;;;;;12.95;4.28;;;;;;;15.52;100.00;101813.78;5016365;28;20147;-77
2023/10/07 00:22:41;;;;;;;10.82;4.40;;;;;;;15.54;100.00;101819.06;5017136;28;20508;-76
2023/10/07 00:25:15;;;;;;;10.60;4.10;;;;;;;15.52;100.00;101813.78;5011795;28;20032;-76
2023/10/07 00:27:41;;;;;;;13.07;4.35;;;;;;;15.49;100.00;101796.81;5015306;28;20046;-76
2023/10/07 00:30:13;;;;;;;11.00;3.63;;;;;;;15.50;100.00;101795.63;5016456;28;20520;-76
2023/10/07 00:32:39;;;;;;;11.43;4.78;;;;;;;15.51;100.00;101809.34;5016777;28;20028;-76
2023/10/07 00:35:06;;;;;;;15.90;4.93;;;;;;;15.53;100.00;101814.59;5019916;28;20029;-76
2023/10/07 00:37:34;;;;;;;14.63;4.70;;;;;;;15.48;100.00;101804.47;5013439;28;20133;-76
2023/10/07 00:40:01;;;;;;;17.27;4.32;;;;;;;15.51;100.00;101814.19;5017827;28;20025;-76
2023/10/07 00:42:28;;;;;;;9.70;5.13;;;;;;;15.53;100.00;101817.41;5013285;28;20196;-76
2023/10/07 00:44:55;;;;;;;15.20;5.10;;;;;;;15.53;100.00;101812.56;5016637;28;20116;-76
2023/10/07 00:47:21;;;;;;;12.68;4.68;;;;;;;15.56;100.00;101811.81;5015118;28;20060;-76
2023/10/07 00:52:32;;;;;;;12.80;4.72;;;;;;;15.57;100.00;101816.25;5015073;28;20481;-76
2023/10/07 00:55:24;;;;;;;15.68;5.90;;;;;;;15.60;100.00;101812.66;5014672;28;20033;-76
2023/10/07 00:57:48;;;;;;;16.25;4.80;;;;;;;15.60;100.00;101815.47;5016703;28;20149;-76
2023/10/07 01:02:53;;;;;;;14.57;4.95;;;;;;;15.62;100.00;101813.09;5018169;28;20055;-76
2023/10/07 01:05:26;;;;;;;13.88;4.63;;;;;;;15.60;100.00;101818.31;5014464;28;20063;-76
2023/10/07 01:07:58;;;;;;;15.95;4.20;;;;;;;15.65;100.00;101814.31;5014617;28;20033;-76
2023/10/07 01:10:31;;;;;;;16.80;5.43;;;;;;;15.64;100.00;101812.66;5012197;28;20037;-75
2023/10/07 01:13:02;;;;;;;13.23;5.07;;;;;;;15.64;100.00;101810.69;5013666;28;20035;-75
2023/10/07 01:15:29;;;;;;;8.63;4.63;;;;;;;15.63;100.00;101806.22;5015038;28;20037;-76
2023/10/07 01:18:06;;;;;;;14.35;4.47;;;;;;;15.62;100.00;101804.63;5010429;28;20077;-76
2023/10/07 01:20:37;;;;;;;12.38;4.63;;;;;;;15.67;100.00;101806.25;5012116;28;20120;-76
2023/10/07 01:23:04;;;;;;;12.90;5.38;;;;;;;15.64;100.00;101796.56;5013313;28;20572;-76
2023/10/07 01:25:43;;;;;;;13.75;5.78;;;;;;;15.65;100.00;101809.47;5013376;28;20033;-76
2023/10/07 01:28:11;;;;;;;14.63;5.30;;;;;;;15.68;100.00;101795.78;5013431;28;20499;-76
2023/10/07 01:30:36;;;;;;;13.20;5.28;;;;;;;15.64;100.00;101802.22;5012441;28;20401;-76
2023/10/07 01:33:04;;;;;;;13.73;4.88;;;;;;;15.63;100.00;101800.56;5017712;28;20022;-76
2023/10/07 01:35:39;;;;;;;16.52;5.72;;;;;;;15.64;100.00;101802.22;5014345;28;20080;-76
2023/10/07 01:38:07;;;;;;;16.70;5.70;;;;;;;15.64;100.00;101799.38;5018437;28;20391;-76
2023/10/07 01:40:55;;;;;;;12.95;5.80;;;;;;;15.70;100.00;101794.16;5014930;28;20409;-76
2023/10/07 01:43:21;;;;;;;19.42;5.57;;;;;;;15.66;100.00;101796.16;5015642;28;20026;-76
2023/10/07 01:45:49;;;;;;;22.55;6.00;;;;;;;15.70;100.00;101793.38;5016351;28;20034;-76
2023/10/07 01:48:17;;;;;;;19.20;5.10;;;;;;;15.69;100.00;101797.41;5018566;28;20374;-76
2023/10/07 01:50:44;;;;;;;21.30;6.05;;;;;;;15.68;100.00;101807.06;5015969;28;20036;-76
2023/10/07 01:53:11;;;;;;;13.68;5.35;;;;;;;15.65;100.00;101798.19;5018775;28;20497;-75
2023/10/07 01:55:43;;;;;;;15.55;5.30;;;;;;;15.68;100.00;101787.31;5015834;28;20422;-76
2023/10/07 01:58:13;;;;;;;14.07;6.82;;;;;;;15.66;100.00;101798.97;5018491;28;20030;-75
2023/10/07 02:00:44;;;;;;;11.93;4.85;;;;;;;15.68;100.00;101792.94;5020469;28;20390;-75
2023/10/07 02:03:14;;;;;;;15.15;7.25;;;;;;;15.63;100.00;101797.75;5017527;28;20033;-76
2023/10/07 02:05:40;;;;;;;16.00;5.70;;;;;;;15.67;100.00;101797.78;5017044;28;20544;-76
2023/10/07 02:08:14;;;;;;;11.75;4.43;;;;;;;15.66;100.00;101804.63;5016583;28;20034;-76
2023/10/07 02:10:45;;;;;;;11.45;4.97;;;;;;;15.62;100.00;101793.31;5007476;28;20389;-73
2023/10/07 02:13:19;;;;;;;17.13;5.82;;;;;;;15.61;100.00;101797.34;5016260;28;20124;-73
2023/10/07 02:15:48;;;;;;;11.63;4.95;;;;;;;15.62;100.00;101792.50;5016125;28;20067;-73
2023/10/07 02:18:16;;;;;;;13.50;5.35;;;;;;;15.63;100.00;101803.41;5019008;28;20021;-73
2023/10/07 02:20:53;;;;;;;14.63;5.72;;;;;;;15.64;100.00;101802.22;5017845;28;20508;-73
2023/10/07 02:23:32;;;;;;;13.60;4.97;;;;;;;15.62;100.00;101800.97;5018918;28;20035;-73
2023/10/07 02:25:58;;;;;;;19.30;6.28;;;;;;;15.62;100.00;101798.97;5015097;28;20520;-73
2023/10/07 02:28:29;;;;;;;15.48;5.32;;;;;;;15.64;100.00;101796.56;5016133;28;20045;-73
2023/10/07 02:31:01;;;;;;;13.02;5.85;;;;;;;15.62;100.00;101798.13;5017212;28;20029;-73
2023/10/07 02:33:28;;;;;;;18.75;6.93;;;;;;;15.60;100.00;101787.25;5016464;28;20604;-73
2023/10/07 02:35:56;;;;;;;14.63;5.43;;;;;;;15.60;100.00;101784.44;5018902;28;20288;-73
2023/10/07 02:38:35;;;;;;;14.38;6.10;;;;;;;15.65;100.00;101797.38;5018928;28;20029;-73
2023/10/07 02:41:07;;;;;;;12.65;5.13;;;;;;;15.63;100.00;101799.78;5017143;28;20044;-72
2023/10/07 02:43:35;;;;;;;15.88;5.75;;;;;;;15.67;100.00;101800.63;5017527;28;20087;-71
2023/10/07 02:46:08;;;;;;;13.40;5.25;;;;;;;15.67;100.00;101799.81;5016240;28;20116;-73
2023/10/07 02:48:38;;;;;;;15.40;5.50;;;;;;;15.65;100.00;101794.56;5017454;28;20450;-71
2023/10/07 02:51:08;;;;;;;15.95;5.43;;;;;;;15.64;100.00;101798.56;5018171;28;20030;-72
2023/10/07 02:53:35;;;;;;;17.42;6.00;;;;;;;15.60;100.00;101789.25;5014741;28;20564;-73
2023/10/07 02:56:05;;;;;;;11.65;5.00;;;;;;;15.62;100.00;101792.50;5016644;28;20055;-72
2023/10/07 02:58:36;;;;;;;18.17;5.25;;;;;;;15.62;100.00;101784.84;5016357;28;20033;-74
2023/10/07 03:01:12;;;;;;;11.80;5.30;;;;;;;15.64;100.00;101779.63;5026359;28;20540;-74
2023/10/07 03:03:40;;;;;;;17.20;5.82;;;;;;;15.63;100.00;101789.28;5020610;28;20033;-72
2023/10/07 03:06:07;;;;;;;15.88;5.90;;;;;;;15.66;100.00;101793.34;5021573;28;20351;-74
2023/10/07 03:11:12;;;;;;;15.60;5.13;;;;;;;15.63;100.00;101789.28;5017739;28;20490;-73
2023/10/07 03:13:45;;;;;;;15.05;4.82;;;;;;;15.69;100.00;101783.31;5026252;28;20029;-73
2023/10/07 03:18:56;;;;;;;11.57;5.55;;;;;;;15.63;100.00;101789.28;5016138;28;20033;-73
2023/10/07 03:21:35;;;;;;;15.93;5.80;;;;;;;15.65;100.00;101786.88;5018592;28;20033;-76
2023/10/07 03:24:00;;;;;;;14.02;5.53;;;;;;;15.71;100.00;101783.72;5017753;28;20489;-76
2023/10/07 03:26:25;;;;;;;14.07;5.47;;;;;;;15.73;100.00;101793.44;5017296;28;20052;-75
2023/10/07 03:28:55;;;;;;;11.05;4.53;;;;;;;15.71;100.00;101783.72;5015942;28;20029;-76
2023/10/07 03:31:33;;;;;;;17.05;5.28;;;;;;;15.74;100.00;101788.59;5018266;28;20099;-76
2023/10/07 03:33:58;;;;;;;14.35;4.82;;;;;;;15.79;100.00;101788.22;5015543;28;20029;-76
2023/10/07 03:41:43;;;;;;;10.82;4.32;;;;;;;15.81;100.00;101788.63;5017712;28;20053;-76
2023/10/07 03:44:08;;;;;;;15.20;5.10;;;;;;;15.80;100.00;101793.47;5017649;28;20731;-76
2023/10/07 03:46:38;;;;;;;15.98;5.15;;;;;;;15.83;100.00;101784.25;5016428;28;20041;-76
2023/10/07 03:49:06;;;;;;;19.27;5.63;;;;;;;15.85;100.00;101792.28;5016455;28;20088;-76
2023/10/07 03:51:32;;;;;;;14.88;5.72;;;;;;;15.90;100.00;101791.94;5015961;28;20083;-75
2023/10/07 03:54:09;;;;;;;18.60;5.75;;;;;;;15.87;100.00;101784.25;5015738;28;20048;-76
2023/10/07 03:56:35;;;;;;;11.43;5.00;;;;;;;15.91;100.00;101792.75;5013438;28;20039;-76
2023/10/07 03:59:01;;;;;;;16.95;4.70;;;;;;;15.89;100.00;101790.31;5017683;28;20025;-76
2023/10/07 04:01:27;;;;;;;15.77;6.20;;;;;;;15.91;100.00;101793.56;5018404;28;20059;-75
2023/10/07 04:03:59;;;;;;;10.32;4.45;;;;;;;15.87;100.00;101789.91;5035730;28;20450;-76
2023/10/07 04:06:31;;;;;;;11.95;5.43;;;;;;;15.93;100.00;101784.69;5016606;28;20587;-76
2023/10/07 04:09:05;;;;;;;;;;;;;;;15.91;100.00;101779.44;5017371;28;20041;-75
2023/10/07 04:11:36;;;;;;;14.93;5.20;;;;;;;15.93;100.00;101785.50;5017219;28;19916;-76
2023/10/07 04:14:19;;;;;;;11.18;4.75;;;;;;;15.91;100.00;101776.63;5015641;28;20060;-76
2023/10/07 04:16:50;;;;;;;13.23;5.50;;;;;;;15.90;100.00;101779.84;5017726;28;20444;-76
2023/10/07 04:21:41;;;;;;;11.52;5.00;;;;;;;15.95;100.00;101765.34;5017729;28;20522;-76
2023/10/07 04:24:11;;;;;;;13.95;4.82;;;;;;;15.97;100.00;101768.59;5015746;28;20032;-76
2023/10/07 04:26:40;;;;;;;12.30;4.60;;;;;;;15.92;100.00;101761.31;5017029;28;20033;-76
2023/10/07 04:29:14;;;;;;;16.45;4.97;;;;;;;15.93;100.00;101762.13;5018250;28;20065;-73
2023/10/07 04:31:45;;;;;;;12.70;5.38;;;;;;;15.96;100.00;101773.44;5013661;28;20559;-74
2023/10/07 04:34:18;;;;;;;12.15;5.00;;;;;;;15.98;100.00;101776.69;5017015;28;20064;-73
2023/10/07 04:39:37;;;;;;;15.40;5.00;;;;;;;15.99;100.00;101777.47;5016357;28;20033;-73
2023/10/07 04:42:05;;;;;;;15.18;5.00;;;;;;;15.94;100.00;101764.56;5017720;28;20044;-73
2023/10/07 04:47:34;;;;;;;14.48;5.32;;;;;;;15.96;100.00;101778.25;5014315;28;20041;-73
2023/10/07 04:50:16;;;;;;;12.30;4.35;;;;;;;15.99;100.00;101767.00;5016118;28;20388;-73
2023/10/07 04:52:51;;;;;;;15.88;5.13;;;;;;;15.99;100.00;101769.00;5015341;28;20116;-73
2023/10/07 04:55:25;;;;;;;13.38;4.38;;;;;;;15.97;100.00;101754.47;5015163;28;20133;-73
2023/10/07 05:02:57;;;;;;;12.57;5.43;;;;;;;16.04;100.00;101775.09;5013525;28;20379;-74
2023/10/07 05:05:30;;;;;;;20.58;6.00;;;;;;;16.00;100.00;101771.44;5017359;28;20030;-73
2023/10/07 05:08:22;;;;;;;18.80;5.47;;;;;;;15.97;100.00;101768.59;5016943;28;20084;-73
2023/10/07 05:10:52;;;;;;;9.07;4.47;;;;;;;15.94;100.00;101763.72;5016083;28;20030;-76
2023/10/07 05:13:18;;;;;;;11.77;5.18;;;;;;;15.99;100.00;101764.16;5016851;28;20367;-76
2023/10/07 05:15:43;;;;;;;15.38;4.40;;;;;;;15.99;100.00;101761.34;5014969;28;20048;-76
2023/10/07 05:18:13;;;;;;;13.25;4.57;;;;;;;16.00;100.00;101768.63;5024718;28;20058;-76
2023/10/07 05:20:42;;;;;;;12.55;5.53;;;;;;;15.98;100.00;101756.06;5015931;28;20503;-76
2023/10/07 05:23:08;;;;;;;10.75;4.20;;;;;;;15.98;100.00;101742.78;5021008;28;20550;-75
2023/10/07 05:25:38;;;;;;;13.23;4.60;;;;;;;15.98;100.00;101748.44;5015856;28;20029;-76
2023/10/07 05:28:10;;;;;;;12.55;4.68;;;;;;;15.98;100.00;101754.09;5016913;28;20919;-76
2023/10/07 05:30:43;;;;;;;14.63;5.60;;;;;;;16.04;100.00;101755.34;5015880;28;20040;-77
2023/10/07 05:33:09;;;;;;;18.98;5.32;;;;;;;16.01;100.00;101742.00;5015956;28;20029;-76
2023/10/07 05:35:40;;;;;;;12.13;5.95;;;;;;;16.06;100.00;101743.63;5011209;28;20037;-76
2023/10/07 05:38:09;;;;;;;16.00;6.28;;;;;;;16.04;100.00;101749.69;5016872;28;20490;-76
2023/10/07 05:40:36;;;;;;;13.52;4.93;;;;;;;16.01;100.00;101758.13;5014084;28;20029;-73
2023/10/07 05:43:02;;;;;;;22.27;4.53;;;;;;;15.98;100.00;101759.75;5012605;28;20022;-73
2023/10/07 05:45:28;;;;;;;17.02;4.95;;;;;;;16.00;100.00;101760.16;5016820;28;20360;-73
2023/10/07 05:47:54;;;;;;;14.02;5.68;;;;;;;16.04;100.00;101758.16;5011291;28;20017;-73
2023/10/07 05:50:22;;;;;;;14.02;5.10;;;;;;;16.04;100.00;101769.47;5023692;28;20029;-73
2023/10/07 05:52:47;;;;;;;18.30;5.05;;;;;;;16.03;100.00;101773.47;5017127;28;20038;-73
2023/10/07 05:55:13;;;;;;;13.55;5.72;;;;;;;16.04;100.00;101763.81;5024628;28;20057;-73
2023/10/07 05:57:39;;;;;;;14.45;5.85;;;;;;;16.05;100.00;101781.56;5021240;28;20034;-73
2023/10/07 06:00:09;;;;;;;11.35;3.90;;;;;;;16.02;100.00;101783.16;5017126;28;20030;-73
2023/10/07 06:02:38;;;;;;;14.43;4.75;;;;;;;16.02;100.00;101785.16;5022184;28;20096;-73
2023/10/07 06:05:06;;;;;;;21.55;4.88;;;;;;;16.02;100.00;101783.16;5027098;28;20030;-73
2023/10/07 06:07:32;;;;;;;22.05;6.15;;;;;;;16.05;100.00;101782.34;5023687;28;20033;-73
2023/10/07 06:09:58;;;;;;;16.55;5.25;;;;;;;16.10;100.00;101788.84;5023709;28;20093;-73
2023/10/07 06:12:24;;;;;;;14.32;5.13;;;;;;;16.08;100.00;101775.09;5019313;28;20033;-73
2023/10/07 06:14:49;;;;;;;13.23;4.93;;;;;;;16.05;100.00;101776.72;5028001;28;20071;-73
2023/10/07 06:17:15;;;;;;;10.55;4.93;;;;;;;16.09;100.00;101767.47;5020258;28;20370;-73
2023/10/07 06:19:43;;;;;;;15.48;5.35;;;;;;;16.06;100.00;101771.88;5012122;28;20387;-76
2023/10/07 06:22:12;;;;;;;17.38;5.20;;;;;;;16.13;100.00;101756.97;5012678;28;20167;-76
2023/10/07 06:24:39;;;;;;;19.55;5.15;;;;;;;16.16;100.00;101764.66;5013762;28;20052;-76
2023/10/07 06:27:12;;;;;;;14.90;5.15;;;;;;;16.12;100.00;101770.28;5015151;28;20048;-76
2023/10/07 06:29:44;;;;;;;17.05;5.13;;;;;;;16.09;100.00;101765.44;5017793;28;20067;-75
2023/10/07 06:32:22;;;;;;;11.30;5.45;;;;;;;16.14;100.00;101769.91;5018525;28;20045;-76
2023/10/07 06:34:51;;;;;;;15.02;5.57;;;;;;;16.12;100.00;101763.84;5015503;28;20673;-76
2023/10/07 06:37:25;;;;;;;18.63;5.30;;;;;;;16.18;100.00;101765.09;5023498;28;20037;-76
2023/10/07 06:39:51;;;;;;;12.13;5.32;;;;;;;16.15;100.00;101772.34;5014340;28;20079;-76
2023/10/07 06:42:21;;;;;;;14.98;5.30;;;;;;;16.15;100.00;101775.16;5023411;28;20029;-76
2023/10/07 06:44:47;;;;;;;12.98;4.95;;;;;;;16.14;100.00;101770.72;5018167;28;20042;-76
2023/10/07 06:47:13;;;;;;;11.77;5.20;;;;;;;16.14;100.00;101779.19;5022185;28;20032;-76
2023/10/07 06:49:39;;;;;;;15.57;5.70;;;;;;;16.19;100.00;101780.81;5025947;28;20033;-72
2023/10/07 06:52:05;;;;;;;10.63;4.50;;;;;;;16.22;100.00;101794.16;5018715;28;20504;-72
2023/10/07 06:54:33;;;;;;;16.55;6.40;;;;;;;16.16;100.00;101787.25;5021054;28;20029;-72
2023/10/07 06:57:01;;;;;;;15.63;5.60;;;;;;;16.17;100.00;101784.06;5016014;28;20057;-72
2023/10/07 06:59:29;;;;;;;12.55;5.32;;;;;;;16.23;100.00;101793.78;5023951;28;20056;-71
2023/10/07 07:01:55;;;;;;;21.50;5.97;;;;;;;16.26;100.00;101800.66;5016753;28;20082;-72
2023/10/07 07:04:22;;;;;;;14.07;4.90;;;;;;;16.25;100.00;101804.66;5023258;28;20061;-72
2023/10/07 07:07:37;;;;;;;16.90;5.22;;;;;;;16.25;100.00;101791.38;5019288;28;20456;-72
2023/10/07 07:09:41;;;;;;;16.55;5.10;;;;;;;16.25;100.00;101793.38;5010296;28;20107;-72
2023/10/07 07:12:11;;;;;;;13.07;5.10;;;;;;;16.23;100.00;101795.78;5029805;28;20506;-71
2023/10/07 07:14:37;;;;;;;16.80;5.78;;;;;;;16.26;100.00;101783.69;5011181;28;20064;-72
2023/10/07 07:22:43;;;;;;;17.77;6.28;;;;;;;16.39;100.00;101790.63;5015410;28;20521;-73
2023/10/07 07:25:17;;;;;;;18.52;5.75;;;;;;;16.50;100.00;101785.00;5029199;28;20033;-72
2023/10/07 07:27:48;;;;;;;9.95;5.10;;;;;;;16.50;100.00;101785.00;5011892;28;20040;-72
2023/10/07 07:30:35;;;;;;;16.77;5.60;;;;;;;16.59;100.00;101784.63;5020947;28;20029;-72
2023/10/07 07:33:12;;;;;;;13.93;4.70;;;;;;;16.55;100.00;101783.81;5020320;28;20094;-72
2023/10/07 07:35:45;;;;;;;14.10;5.25;;;;;;;16.63;100.00;101785.47;5016484;28;20029;-73
2023/10/07 07:38:22;;;;;;;10.82;4.30;;;;;;;16.63;100.00;101791.13;5014861;28;20034;-72
2023/10/07 07:40:49;;;;;;;19.00;5.43;;;;;;;16.63;100.00;101799.59;5020499;28;20032;-73
2023/10/07 07:43:19;;;;;;;13.55;4.85;;;;;;;16.63;100.00;101808.91;5013898;28;20740;-73
2023/10/07 07:45:46;;;;;;;12.52;5.78;;;;;;;16.69;100.00;101805.69;5024550;28;20176;-73
2023/10/07 07:48:11;;;;;;;12.82;4.85;;;;;;;16.67;100.00;101800.44;5021469;28;20535;-73
2023/10/07 07:50:41;;;;;;;11.93;4.80;;;;;;;16.71;100.00;101806.09;5026706;28;20036;-76
2023/10/07 07:53:07;;;;;;;7.72;4.28;;;;;;;16.72;100.00;101797.22;5019747;28;20382;-75
2023/10/07 07:55:34;;;;;;;13.75;5.60;;;;;;;16.76;100.00;101795.22;5021851;28;20082;-76
2023/10/07 07:58:00;;;;;;;12.88;4.70;;;;;;;16.78;100.00;101800.47;5019805;28;20033;-75
2023/10/07 08:00:28;;;;;;;10.52;4.63;;;;;;;16.85;100.00;101792.06;5011900;28;20036;-72
2023/10/07 08:02:55;;;;;;;16.48;5.95;;;;;;;16.84;100.00;101802.56;5012033;28;20092;-74
2023/10/07 08:05:21;;;;;;;13.20;4.72;;;;;;;16.91;100.00;101809.41;5020232;28;20806;-72
2023/10/07 08:07:51;;;;;;;12.07;4.38;;;;;;;16.96;100.00;101806.22;5022861;28;20022;-72
2023/10/07 08:10:20;;;;;;;10.90;4.25;;;;;;;16.84;100.00;101808.22;5015336;28;20156;-72
2023/10/07 08:12:47;;;;;;;10.35;4.07;;;;;;;16.88;100.00;101810.22;5018751;28;20870;-72
2023/10/07 08:17:37;;;;;;;9.05;4.35;;;;;;;16.90;100.00;101807.81;5017415;28;20500;-72
2023/10/07 08:20:10;;;;;;;14.57;4.68;;;;;;;16.94;100.00;101808.63;5013912;28;20456;-72
2023/10/07 08:22:44;;;;;;;12.80;4.18;;;;;;;16.98;100.00;101809.47;5018072;28;20036;-72
2023/10/07 08:25:15;;;;;;;10.07;4.05;;;;;;;17.03;100.00;101806.22;5014553;28;20401;-74
2023/10/07 08:27:44;;;;;;;10.88;4.35;;;;;;;16.94;100.00;101805.81;5024483;28;20517;-72
2023/10/07 08:30:13;;;;;;;10.68;4.07;;;;;;;17.01;100.00;101808.66;5020181;28;20178;-74
2023/10/07 08:32:41;;;;;;;9.93;4.25;;;;;;;17.03;100.00;101817.53;5012451;28;20274;-72
2023/10/07 08:35:14;;;;;;;10.98;4.40;;;;;;;17.12;100.00;101820.81;5013949;28;20022;-72
2023/10/07 08:37:49;;;;;;;14.27;4.88;;;;;;;17.21;100.00;101828.91;5015527;28;20076;-73
2023/10/07 08:40:26;;;;;;;11.68;4.18;;;;;;;17.19;100.00;101820.81;5011800;28;20040;-74
2023/10/07 08:42:55;;;;;;;9.15;4.00;;;;;;;17.21;100.00;101826.88;5013596;28;20037;-73
2023/10/07 08:45:23;;;;;;;8.05;4.35;;;;;;;17.31;100.00;101833.78;5015041;28;20029;-72
2023/10/07 08:47:53;;;;;;;13.80;4.65;;;;;;;17.26;100.00;101846.28;5013073;28;20410;-73
2023/10/07 08:50:23;;;;;;;13.13;3.90;;;;;;;17.43;100.00;101843.91;5011931;28;20025;-74
2023/10/07 08:53:04;;;;;;;12.35;4.00;;;;;;;17.39;100.00;101840.25;5011920;28;20095;-72
2023/10/07 08:55:31;;;;;;;9.50;3.78;;;;;;;17.42;100.00;101828.13;5015333;28;20040;-73
2023/10/07 08:58:02;;;;;;;9.43;4.07;;;;;;;17.54;100.00;101844.75;5013476;28;20322;-72
2023/10/07 09:00:32;;;;;;;11.70;5.30;;;;;;;17.60;100.00;101840.28;5020823;28;20032;-75
2023/10/07 09:02:59;;;;;;;10.98;3.90;;;;;;;17.50;100.00;101835.44;5015860;28;20321;-75
2023/10/07 09:05:27;;;;;;;9.48;4.15;;;;;;;17.50;100.00;101834.59;5011339;28;20552;-74
2023/10/07 09:07:56;;;;;;;12.52;3.70;;;;;;;17.60;100.00;101834.63;5009347;28;20021;-74
2023/10/07 09:10:28;;;;;;;7.32;3.22;;;;;;;17.62;100.00;101835.00;5011882;28;20053;-77
2023/10/07 09:12:56;;;;;;;12.70;4.53;;;;;;;17.70;100.00;101820.88;5012724;28;20129;-76
2023/10/07 09:15:26;;;;;;;11.60;4.38;;;;;;;17.76;100.00;101830.59;5013148;28;20040;-80
2023/10/07 09:18:17;;;;;;;12.52;3.83;;;;;;;17.75;100.00;101834.63;5016033;28;20113;-80
2023/10/07 09:20:50;;;;;;;11.75;4.20;;;;;;;17.74;100.00;101844.34;5009526;28;20041;-77
2023/10/07 09:23:19;;;;;;;14.10;3.85;;;;;;;17.80;100.00;101848.38;5010452;28;20537;-78
2023/10/07 09:25:51;;;;;;;9.77;3.95;;;;;;;17.86;100.00;101841.94;5010900;28;20371;-78
2023/10/07 09:28:19;;;;;;;12.98;3.88;;;;;;;17.82;100.00;101829.81;5016471;28;20049;-77
2023/10/07 09:30:45;;;;;;;14.05;4.55;;;;;;;17.87;100.00;101832.22;5010692;28;20460;-77
2023/10/07 09:33:19;;;;;;;14.43;3.70;;;;;;;17.94;100.00;101842.75;5013174;28;20386;-77
2023/10/07 09:36:22;;;;;;;9.82;3.38;;;;;;;17.89;100.00;101837.47;5016001;28;20492;-78
2023/10/07 09:38:42;;;;;;;9.73;4.38;;;;;;;18.33;100.00;101850.38;5013456;28;20381;-78
2023/10/07 09:41:43;;;;;;;10.63;4.05;;;;;;;18.23;100.00;101842.69;5017866;28;20044;-79
2023/10/07 09:44:02;;;;;;;13.65;3.20;;;;;;;18.18;100.00;101834.63;5014420;28;20050;-79
2023/10/07 09:46:34;;;;;;;16.65;4.53;;;;;;;18.21;100.00;101833.78;5012453;28;20028;-79
2023/10/07 09:49:00;;;;;;;8.82;3.38;;;;;;;18.24;100.00;101833.00;5012679;28;20368;-79
2023/10/07 09:51:34;;;;;;;14.10;5.97;;;;;;;18.37;100.00;101842.69;5009852;28;20078;-78
2023/10/07 09:54:22;;;;;;;12.35;3.80;;;;;;;18.49;100.00;101833.75;5015375;28;20484;-78
2023/10/07 09:57:21;;;;;;;11.70;3.63;;;;;;;18.32;100.00;101840.28;5017610;28;20505;-78
2023/10/07 09:59:56;;;;;;;10.90;4.60;;;;;;;18.47;100.00;101846.72;5014326;28;20049;-78
2023/10/07 10:02:51;;;;;;;12.55;4.40;;;;;;;18.46;100.00;101851.56;5031113;28;20033;-78
2023/10/07 10:05:44;;;;;;;10.07;4.70;;;;;;;18.50;100.00;101857.22;5019115;28;20014;-78
2023/10/07 10:08:29;;;;;;;;;;;;;;;18.54;100.00;101858.00;5030310;28;20481;-78
2023/10/07 10:11:08;;;;;;;18.50;5.97;;;;;;;18.58;100.00;101858.81;5016492;28;20396;-78
2023/10/07 10:16:13;;;;;;;13.98;3.63;;;;;;;18.53;100.00;101858.41;5015039;28;20034;-77
2023/10/07 10:18:45;;;;;;;12.45;4.70;;;;;;;18.54;100.00;101868.56;5012990;28;20494;-77
2023/10/07 10:21:12;;;;;;;11.05;3.88;;;;;;;18.53;100.00;101861.25;5011494;28;20542;-75
2023/10/07 10:23:44;;;;;;;12.70;4.20;;;;;;;18.54;100.00;101860.06;5013271;28;20030;-75
2023/10/07 10:26:14;;;;;;;11.73;4.97;;;;;;;18.55;100.00;101864.50;5016359;28;20033;-74
2023/10/07 10:28:45;;;;;;;13.70;4.47;;;;;;;18.51;100.00;101870.19;5024829;28;20045;-74
2023/10/07 10:31:24;;;;;;;13.85;4.47;;;;;;;18.57;100.00;101882.69;5014846;28;20513;-75
2023/10/07 10:33:50;;;;;;;9.65;3.35;;;;;;;18.53;100.00;101889.59;5016288;28;20537;-76
2023/10/07 10:36:22;;;;;;;5.70;3.20;;;;;;;18.59;100.00;101897.28;5021026;28;20033;-75
2023/10/07 10:38:48;;;;;;;14.00;6.35;;;;;;;18.62;100.00;101887.16;5023219;28;20079;-75
2023/10/07 10:41:13;;;;;;;23.70;8.57;;;;;;;18.70;100.00;101888.78;5015517;28;20452;-75
2023/10/07 10:43:39;;;;;;;15.13;4.88;;;;;;;18.84;100.00;101885.88;5018249;28;20036;-74
2023/10/07 10:46:06;;;;;;;11.88;5.20;;;;;;;18.71;100.00;101879.03;5013524;28;20116;-74
2023/10/07 10:48:33;;;;;;;16.75;7.75;;;;;;;18.83;100.00;101881.44;5023568;28;20400;-75
2023/10/07 10:50:59;;;;;;;11.50;4.43;;;;;;;18.86;100.00;101891.97;5018278;28;20650;-75
2023/10/07 10:53:25;;;;;;;12.02;5.40;;;;;;;18.89;100.00;101887.53;5016158;28;20045;-76
2023/10/07 10:55:51;;;;;;;10.95;4.25;;;;;;;18.86;100.00;101900.47;5009312;28;20079;-75
2023/10/07 10:58:17;;;;;;;11.05;3.85;;;;;;;18.82;100.00;101898.88;5018424;28;20069;-74
2023/10/07 11:00:51;;;;;;;12.82;3.22;;;;;;;18.82;100.00;101890.38;5019718;28;20069;-75
2023/10/07 11:03:20;;;;;;;12.32;3.75;;;;;;;18.82;100.00;101891.16;5019681;28;20040;-75
2023/10/07 11:05:56;;;;;;;15.27;4.18;;;;;;;18.76;100.00;101895.59;5021255;28;20129;-75
2023/10/07 11:08:23;;;;;;;9.35;3.85;;;;;;;18.80;100.00;101902.13;5022465;28;20040;-74
2023/10/07 11:10:58;;;;;;;15.30;4.60;;;;;;;18.85;100.00;101898.06;5015097;28;20033;-74
2023/10/07 11:13:24;;;;;;;13.43;4.05;;;;;;;18.88;100.00;101898.03;5027359;28;20378;-75
2023/10/07 11:16:10;;;;;;;12.00;3.60;;;;;;;19.02;100.00;101907.72;5024526;28;20072;-76
2023/10/07 11:18:44;;;;;;;13.60;4.10;;;;;;;19.15;100.00;101897.53;5014164;28;20506;-76
2023/10/07 11:21:17;;;;;;;12.07;4.05;;;;;;;19.17;100.00;101894.28;5017194;28;20068;-75
2023/10/07 11:23:46;;;;;;;9.70;3.60;;;;;;;19.33;100.00;101890.94;5017700;28;20073;-75
2023/10/07 11:26:11;;;;;;;10.52;3.85;;;;;;;19.45;100.00;101893.31;5016327;28;20042;-75
2023/10/07 11:28:38;;;;;;;10.70;3.63;;;;;;;19.53;100.00;101917.59;5015295;28;20045;-76
2023/10/07 11:31:06;;;;;;;15.50;3.83;;;;;;;19.37;100.00;101911.59;5023088;28;20554;-77
2023/10/07 11:33:34;;;;;;;12.55;3.83;;;;;;;19.26;100.00;101900.31;5015097;28;20033;-77
2023/10/07 11:36:02;;;;;;;10.70;4.22;;;;;;;19.38;100.00;101913.22;5015784;28;20521;-77
2023/10/07 11:38:28;;;;;;;11.25;4.47;;;;;;;19.28;100.00;101901.50;5025606;28;20040;-78
2023/10/07 11:40:55;;;;;;;7.97;3.63;;;;;;;19.34;100.00;101906.75;5015970;28;20053;-78
2023/10/07 11:43:23;;;;;;;12.48;3.88;;;;;;;19.23;100.00;101899.09;5017193;28;20593;-76
2023/10/07 11:45:50;;;;;;;12.25;3.90;;;;;;;19.26;100.00;101898.25;5014058;28;20033;-78
2023/10/07 11:48:17;;;;;;;11.52;4.63;;;;;;;19.25;100.00;101913.69;5023554;28;20469;-79
2023/10/07 11:50:44;;;;;;;16.33;5.03;;;;;;;19.26;100.00;101892.59;5010480;28;20030;-78
2023/10/07 11:53:10;;;;;;;16.70;4.15;;;;;;;19.24;100.00;101900.72;5006260;28;20223;-77
2023/10/07 11:55:36;;;;;;;11.02;4.13;;;;;;;19.26;100.00;101892.59;5009874;28;20029;-75
2023/10/07 11:58:03;;;;;;;9.07;3.00;;;;;;;19.20;100.00;101899.91;5019728;28;20033;-77
2023/10/07 12:00:34;;;;;;;15.82;5.07;;;;;;;19.33;100.00;101907.97;5019191;28;20485;-76
2023/10/07 12:03:04;;;;;;;8.40;3.05;;;;;;;19.26;100.00;101886.91;5011549;28;20038;-76